sensor_id;sensor_type;location;lat;lon;timestamp;temperature;humidity
25512;DHT22;13414;44.534;18.700;2022-09-12T00:00:42;14.70;99.90
25512;DHT22;13414;44.534;18.700;2022-09-12T00:03:10;14.70;99.90
25512;DHT22;13414;44.534;18.700;2022-09-12T00:05:40;14.70;99.90
25512;DHT22;13414;44.534;18.700;2022-09-12T00:08:08;14.70;99.90
25512;DHT22;13414;44.534;18.700;2022-09-12T00:10:37;14.70;99.90
25512;DHT22;13414;44.534;18.700;2022-09-12T00:13:04;14.60;99.90
25512;DHT22;13414;44.534;18.700;2022-09-12T00:15:36;14.60;99.90
25512;DHT22;13414;44.534;18.700;2022-09-12T00:18:05;14.50;99.90
25512;DHT22;13414;44.534;18.700;2022-09-12T00:20:32;14.50;99.90
25512;DHT22;13414;44.534;18.700;2022-09-12T00:23:00;14.50;99.90
25512;DHT22;13414;44.534;18.700;2022-09-12T00:25:27;14.50;99.90
25512;DHT22;13414;44.534;18.700;2022-09-12T00:27:56;14.60;99.90
25512;DHT22;13414;44.534;18.700;2022-09-12T00:30:23;14.60;99.90
25512;DHT22;13414;44.534;18.700;2022-09-12T00:32:50;14.70;99.90
25512;DHT22;13414;44.534;18.700;2022-09-12T00:35:20;14.70;99.90
25512;DHT22;13414;44.534;18.700;2022-09-12T00:37:48;14.70;99.90
25512;DHT22;13414;44.534;18.700;2022-09-12T00:40:15;14.80;99.90
25512;DHT22;13414;44.534;18.700;2022-09-12T00:42:42;14.70;99.90
25512;DHT22;13414;44.534;18.700;2022-09-12T00:45:19;14.70;99.90
25512;DHT22;13414;44.534;18.700;2022-09-12T00:47:49;14.70;99.90
25512;DHT22;13414;44.534;18.700;2022-09-12T00:50:17;14.60;99.90
25512;DHT22;13414;44.534;18.700;2022-09-12T00:52:47;14.50;99.90
25512;DHT22;13414;44.534;18.700;2022-09-12T00:55:19;14.50;99.90
25512;DHT22;13414;44.534;18.700;2022-09-12T00:57:50;14.50;99.90
25512;DHT22;13414;44.534;18.700;2022-09-12T01:00:21;14.50;99.90
25512;DHT22;13414;44.534;18.700;2022-09-12T01:02:52;14.40;99.90
25512;DHT22;13414;44.534;18.700;2022-09-12T01:05:22;14.50;99.90
25512;DHT22;13414;44.534;18.700;2022-09-12T01:07:51;14.50;99.90
25512;DHT22;13414;44.534;18.700;2022-09-12T01:10:19;14.50;99.90
25512;DHT22;13414;44.534;18.700;2022-09-12T01:12:47;14.50;99.90
25512;DHT22;13414;44.534;18.700;2022-09-12T01:15:14;14.50;99.90
25512;DHT22;13414;44.534;18.700;2022-09-12T01:17:51;14.50;99.90
25512;DHT22;13414;44.534;18.700;2022-09-12T01:20:42;14.50;99.90
25512;DHT22;13414;44.534;18.700;2022-09-12T01:26:21;14.60;99.90
25512;DHT22;13414;44.534;18.700;2022-09-12T01:29:10;14.60;99.90
25512;DHT22;13414;44.534;18.700;2022-09-12T01:31:47;14.60;99.90
25512;DHT22;13414;44.534;18.700;2022-09-12T01:34:23;14.50;99.90
25512;DHT22;13414;44.534;18.700;2022-09-12T01:36:58;14.40;99.90
25512;DHT22;13414;44.534;18.700;2022-09-12T01:39:39;14.40;99.90
25512;DHT22;13414;44.534;18.700;2022-09-12T01:42:14;14.30;99.90
25512;DHT22;13414;44.534;18.700;2022-09-12T01:44:48;14.30;99.90
25512;DHT22;13414;44.534;18.700;2022-09-12T01:47:28;14.30;99.90
25512;DHT22;13414;44.534;18.700;2022-09-12T01:50:00;14.30;99.90
25512;DHT22;13414;44.534;18.700;2022-09-12T01:52:32;14.20;99.90
25512;DHT22;13414;44.534;18.700;2022-09-12T01:55:06;14.20;99.90
25512;DHT22;13414;44.534;18.700;2022-09-12T01:57:40;14.10;99.90
25512;DHT22;13414;44.534;18.700;2022-09-12T02:00:10;14.10;99.90
25512;DHT22;13414;44.534;18.700;2022-09-12T02:02:48;13.90;99.90
25512;DHT22;13414;44.534;18.700;2022-09-12T02:05:21;13.90;99.90
25512;DHT22;13414;44.534;18.700;2022-09-12T02:07:52;13.80;99.90
25512;DHT22;13414;44.534;18.700;2022-09-12T02:10:24;13.80;99.90
25512;DHT22;13414;44.534;18.700;2022-09-12T02:12:54;13.70;99.90
25512;DHT22;13414;44.534;18.700;2022-09-12T02:15:27;13.70;99.90
25512;DHT22;13414;44.534;18.700;2022-09-12T02:17:57;13.70;99.90
25512;DHT22;13414;44.534;18.700;2022-09-12T02:20:29;13.80;99.90
25512;DHT22;13414;44.534;18.700;2022-09-12T02:22:59;13.80;99.90
25512;DHT22;13414;44.534;18.700;2022-09-12T02:25:28;13.90;99.90
25512;DHT22;13414;44.534;18.700;2022-09-12T02:27:59;13.90;99.90
25512;DHT22;13414;44.534;18.700;2022-09-12T02:30:32;13.90;99.90
25512;DHT22;13414;44.534;18.700;2022-09-12T02:33:06;14.00;99.90
25512;DHT22;13414;44.534;18.700;2022-09-12T02:35:38;14.00;99.90
25512;DHT22;13414;44.534;18.700;2022-09-12T02:38:15;14.00;99.90
25512;DHT22;13414;44.534;18.700;2022-09-12T02:40:46;14.00;99.90
25512;DHT22;13414;44.534;18.700;2022-09-12T02:43:13;14.00;99.90
25512;DHT22;13414;44.534;18.700;2022-09-12T02:45:40;14.00;99.90
25512;DHT22;13414;44.534;18.700;2022-09-12T02:48:11;14.00;99.90
25512;DHT22;13414;44.534;18.700;2022-09-12T02:50:41;14.00;99.90
25512;DHT22;13414;44.534;18.700;2022-09-12T02:53:09;14.00;99.90
25512;DHT22;13414;44.534;18.700;2022-09-12T02:55:39;14.10;99.90
25512;DHT22;13414;44.534;18.700;2022-09-12T02:58:09;14.00;99.90
25512;DHT22;13414;44.534;18.700;2022-09-12T03:00:45;14.00;99.90
25512;DHT22;13414;44.534;18.700;2022-09-12T03:03:23;13.90;99.90
25512;DHT22;13414;44.534;18.700;2022-09-12T03:05:56;13.90;99.90
25512;DHT22;13414;44.534;18.700;2022-09-12T03:08:36;13.90;99.90
25512;DHT22;13414;44.534;18.700;2022-09-12T03:11:31;13.90;99.90
25512;DHT22;13414;44.534;18.700;2022-09-12T03:14:10;13.80;99.90
25512;DHT22;13414;44.534;18.700;2022-09-12T03:16:45;13.80;99.90
25512;DHT22;13414;44.534;18.700;2022-09-12T03:19:24;13.80;99.90
25512;DHT22;13414;44.534;18.700;2022-09-12T03:22:01;13.80;99.90
25512;DHT22;13414;44.534;18.700;2022-09-12T03:24:31;13.80;99.90
25512;DHT22;13414;44.534;18.700;2022-09-12T03:27:03;13.80;99.90
25512;DHT22;13414;44.534;18.700;2022-09-12T03:29:34;13.80;99.90
25512;DHT22;13414;44.534;18.700;2022-09-12T03:32:03;13.90;99.90
25512;DHT22;13414;44.534;18.700;2022-09-12T03:34:31;13.90;99.90
25512;DHT22;13414;44.534;18.700;2022-09-12T03:36:59;13.90;99.90
25512;DHT22;13414;44.534;18.700;2022-09-12T03:39:26;13.90;99.90
25512;DHT22;13414;44.534;18.700;2022-09-12T03:41:54;13.80;99.90
25512;DHT22;13414;44.534;18.700;2022-09-12T03:44:22;13.90;99.90
25512;DHT22;13414;44.534;18.700;2022-09-12T03:46:49;13.90;99.90
25512;DHT22;13414;44.534;18.700;2022-09-12T03:49:16;13.80;99.90
25512;DHT22;13414;44.534;18.700;2022-09-12T03:51:45;13.90;99.90
25512;DHT22;13414;44.534;18.700;2022-09-12T03:54:12;13.90;99.90
25512;DHT22;13414;44.534;18.700;2022-09-12T03:56:39;13.90;99.90
25512;DHT22;13414;44.534;18.700;2022-09-12T03:59:07;13.90;99.90
25512;DHT22;13414;44.534;18.700;2022-09-12T04:01:34;13.90;99.90
25512;DHT22;13414;44.534;18.700;2022-09-12T04:04:02;13.90;99.90
25512;DHT22;13414;44.534;18.700;2022-09-12T04:06:30;13.90;99.90
25512;DHT22;13414;44.534;18.700;2022-09-12T04:08:58;14.00;99.90
25512;DHT22;13414;44.534;18.700;2022-09-12T04:11:26;14.00;99.90
25512;DHT22;13414;44.534;18.700;2022-09-12T04:13:53;14.10;99.90
25512;DHT22;13414;44.534;18.700;2022-09-12T04:16:20;14.10;99.90
25512;DHT22;13414;44.534;18.700;2022-09-12T04:18:48;14.10;99.90
25512;DHT22;13414;44.534;18.700;2022-09-12T04:21:17;14.10;99.90
25512;DHT22;13414;44.534;18.700;2022-09-12T04:23:44;14.10;99.90
25512;DHT22;13414;44.534;18.700;2022-09-12T04:26:14;14.10;99.90
25512;DHT22;13414;44.534;18.700;2022-09-12T04:28:43;14.10;99.90
25512;DHT22;13414;44.534;18.700;2022-09-12T04:31:12;14.10;99.90
25512;DHT22;13414;44.534;18.700;2022-09-12T04:33:40;14.10;99.90
25512;DHT22;13414;44.534;18.700;2022-09-12T04:36:09;14.10;99.90
25512;DHT22;13414;44.534;18.700;2022-09-12T04:38:37;14.20;99.90
25512;DHT22;13414;44.534;18.700;2022-09-12T04:41:11;14.20;99.90
25512;DHT22;13414;44.534;18.700;2022-09-12T04:43:40;14.20;99.90
25512;DHT22;13414;44.534;18.700;2022-09-12T04:46:08;14.20;99.90
25512;DHT22;13414;44.534;18.700;2022-09-12T04:48:36;14.20;99.90
25512;DHT22;13414;44.534;18.700;2022-09-12T04:51:08;14.20;99.90
25512;DHT22;13414;44.534;18.700;2022-09-12T04:53:36;14.20;99.90
25512;DHT22;13414;44.534;18.700;2022-09-12T04:56:04;14.10;99.90
25512;DHT22;13414;44.534;18.700;2022-09-12T04:58:32;14.10;99.90
25512;DHT22;13414;44.534;18.700;2022-09-12T05:01:05;14.10;99.90
25512;DHT22;13414;44.534;18.700;2022-09-12T05:03:33;14.10;99.90
25512;DHT22;13414;44.534;18.700;2022-09-12T05:06:01;14.10;99.90
25512;DHT22;13414;44.534;18.700;2022-09-12T05:08:28;14.30;99.90
25512;DHT22;13414;44.534;18.700;2022-09-12T05:10:56;14.30;99.90
25512;DHT22;13414;44.534;18.700;2022-09-12T05:13:28;14.30;99.90
25512;DHT22;13414;44.534;18.700;2022-09-12T05:15:56;14.30;99.90
25512;DHT22;13414;44.534;18.700;2022-09-12T05:18:25;14.30;99.90
25512;DHT22;13414;44.534;18.700;2022-09-12T05:20:52;14.30;99.90
25512;DHT22;13414;44.534;18.700;2022-09-12T05:23:20;14.20;99.90
25512;DHT22;13414;44.534;18.700;2022-09-12T05:25:48;14.30;99.90
25512;DHT22;13414;44.534;18.700;2022-09-12T05:28:17;14.40;99.90
25512;DHT22;13414;44.534;18.700;2022-09-12T05:30:44;14.60;99.90
25512;DHT22;13414;44.534;18.700;2022-09-12T05:33:12;14.60;99.90
25512;DHT22;13414;44.534;18.700;2022-09-12T05:35:40;14.80;99.90
25512;DHT22;13414;44.534;18.700;2022-09-12T05:38:08;14.90;99.90
25512;DHT22;13414;44.534;18.700;2022-09-12T05:40:35;15.00;99.90
25512;DHT22;13414;44.534;18.700;2022-09-12T05:43:02;15.10;99.90
25512;DHT22;13414;44.534;18.700;2022-09-12T05:45:29;15.10;99.90
25512;DHT22;13414;44.534;18.700;2022-09-12T05:47:57;15.00;99.90
25512;DHT22;13414;44.534;18.700;2022-09-12T05:50:24;15.00;99.90
25512;DHT22;13414;44.534;18.700;2022-09-12T05:52:52;15.00;99.90
25512;DHT22;13414;44.534;18.700;2022-09-12T05:55:20;15.10;99.90
25512;DHT22;13414;44.534;18.700;2022-09-12T05:57:47;15.10;99.90
25512;DHT22;13414;44.534;18.700;2022-09-12T06:00:16;15.10;99.90
25512;DHT22;13414;44.534;18.700;2022-09-12T06:02:44;15.10;99.90
25512;DHT22;13414;44.534;18.700;2022-09-12T06:05:11;15.10;99.90
25512;DHT22;13414;44.534;18.700;2022-09-12T06:07:38;15.10;99.90
25512;DHT22;13414;44.534;18.700;2022-09-12T06:10:07;15.30;99.90
25512;DHT22;13414;44.534;18.700;2022-09-12T06:12:36;15.70;99.90
25512;DHT22;13414;44.534;18.700;2022-09-12T06:15:05;16.10;99.90
25512;DHT22;13414;44.534;18.700;2022-09-12T06:17:32;16.60;99.90
25512;DHT22;13414;44.534;18.700;2022-09-12T06:20:00;17.00;99.90
25512;DHT22;13414;44.534;18.700;2022-09-12T06:22:28;17.20;99.90
25512;DHT22;13414;44.534;18.700;2022-09-12T06:24:56;17.30;99.90
25512;DHT22;13414;44.534;18.700;2022-09-12T06:27:25;17.50;99.90
25512;DHT22;13414;44.534;18.700;2022-09-12T06:29:52;17.50;99.90
25512;DHT22;13414;44.534;18.700;2022-09-12T06:32:19;17.70;99.90
25512;DHT22;13414;44.534;18.700;2022-09-12T06:34:47;17.80;99.90
25512;DHT22;13414;44.534;18.700;2022-09-12T06:37:14;17.80;99.90
25512;DHT22;13414;44.534;18.700;2022-09-12T06:39:41;17.90;99.90
25512;DHT22;13414;44.534;18.700;2022-09-12T06:42:08;18.00;99.90
25512;DHT22;13414;44.534;18.700;2022-09-12T06:44:38;18.10;99.90
25512;DHT22;13414;44.534;18.700;2022-09-12T06:47:06;18.10;99.90
25512;DHT22;13414;44.534;18.700;2022-09-12T06:49:33;17.90;99.90
25512;DHT22;13414;44.534;18.700;2022-09-12T06:52:01;17.90;99.90
25512;DHT22;13414;44.534;18.700;2022-09-12T06:54:28;18.10;99.90
25512;DHT22;13414;44.534;18.700;2022-09-12T06:56:55;18.30;99.90
25512;DHT22;13414;44.534;18.700;2022-09-12T06:59:23;18.40;99.90
25512;DHT22;13414;44.534;18.700;2022-09-12T07:01:52;18.70;99.90
25512;DHT22;13414;44.534;18.700;2022-09-12T07:04:19;19.00;99.90
25512;DHT22;13414;44.534;18.700;2022-09-12T07:06:46;19.20;99.90
25512;DHT22;13414;44.534;18.700;2022-09-12T07:09:14;19.20;99.90
25512;DHT22;13414;44.534;18.700;2022-09-12T07:11:43;19.00;99.90
25512;DHT22;13414;44.534;18.700;2022-09-12T07:14:38;19.00;99.90
25512;DHT22;13414;44.534;18.700;2022-09-12T07:17:07;19.30;99.90
25512;DHT22;13414;44.534;18.700;2022-09-12T07:19:35;19.60;99.90
25512;DHT22;13414;44.534;18.700;2022-09-12T07:22:02;19.80;99.90
25512;DHT22;13414;44.534;18.700;2022-09-12T07:24:29;20.10;99.90
25512;DHT22;13414;44.534;18.700;2022-09-12T07:26:56;20.10;99.90
25512;DHT22;13414;44.534;18.700;2022-09-12T07:29:24;20.20;1.00
25512;DHT22;13414;44.534;18.700;2022-09-12T07:31:51;20.20;1.00
25512;DHT22;13414;44.534;18.700;2022-09-12T07:34:20;20.00;1.00
25512;DHT22;13414;44.534;18.700;2022-09-12T07:36:48;20.00;1.00
25512;DHT22;13414;44.534;18.700;2022-09-12T07:39:15;20.20;1.00
25512;DHT22;13414;44.534;18.700;2022-09-12T07:41:42;20.40;1.00
25512;DHT22;13414;44.534;18.700;2022-09-12T07:44:10;20.60;1.00
25512;DHT22;13414;44.534;18.700;2022-09-12T07:46:37;20.80;99.90
25512;DHT22;13414;44.534;18.700;2022-09-12T07:49:04;20.80;1.00
25512;DHT22;13414;44.534;18.700;2022-09-12T07:51:33;20.70;99.90
25512;DHT22;13414;44.534;18.700;2022-09-12T07:54:01;20.80;99.90
25512;DHT22;13414;44.534;18.700;2022-09-12T07:56:28;20.80;1.00
25512;DHT22;13414;44.534;18.700;2022-09-12T07:58:55;21.00;1.00
25512;DHT22;13414;44.534;18.700;2022-09-12T08:01:23;21.20;1.00
25512;DHT22;13414;44.534;18.700;2022-09-12T08:03:53;21.30;99.90
25512;DHT22;13414;44.534;18.700;2022-09-12T08:06:22;21.50;99.90
25512;DHT22;13414;44.534;18.700;2022-09-12T08:08:51;21.80;99.90
25512;DHT22;13414;44.534;18.700;2022-09-12T08:11:20;21.90;1.00
25512;DHT22;13414;44.534;18.700;2022-09-12T08:13:48;21.50;1.00
25512;DHT22;13414;44.534;18.700;2022-09-12T08:16:18;21.50;1.00
25512;DHT22;13414;44.534;18.700;2022-09-12T08:18:47;21.30;1.00
25512;DHT22;13414;44.534;18.700;2022-09-12T08:21:16;21.40;1.00
25512;DHT22;13414;44.534;18.700;2022-09-12T08:23:43;21.70;1.00
25512;DHT22;13414;44.534;18.700;2022-09-12T08:26:13;21.80;1.00
25512;DHT22;13414;44.534;18.700;2022-09-12T08:28:44;21.70;1.00
25512;DHT22;13414;44.534;18.700;2022-09-12T08:31:13;21.70;1.00
25512;DHT22;13414;44.534;18.700;2022-09-12T08:33:40;22.00;1.00
25512;DHT22;13414;44.534;18.700;2022-09-12T08:36:10;22.10;99.90
25512;DHT22;13414;44.534;18.700;2022-09-12T08:38:39;21.90;99.90
25512;DHT22;13414;44.534;18.700;2022-09-12T08:41:13;21.70;1.00
25512;DHT22;13414;44.534;18.700;2022-09-12T08:46:59;21.80;99.90
25512;DHT22;13414;44.534;18.700;2022-09-12T08:49:35;22.10;99.90
25512;DHT22;13414;44.534;18.700;2022-09-12T08:52:10;21.90;1.00
25512;DHT22;13414;44.534;18.700;2022-09-12T08:54:38;21.80;1.00
25512;DHT22;13414;44.534;18.700;2022-09-12T08:57:09;21.90;99.90
25512;DHT22;13414;44.534;18.700;2022-09-12T08:59:39;21.60;1.00
25512;DHT22;13414;44.534;18.700;2022-09-12T09:02:20;21.50;1.00
25512;DHT22;13414;44.534;18.700;2022-09-12T09:04:51;21.20;1.00
25512;DHT22;13414;44.534;18.700;2022-09-12T09:07:41;21.10;1.00
25512;DHT22;13414;44.534;18.700;2022-09-12T09:10:20;21.20;1.00
25512;DHT22;13414;44.534;18.700;2022-09-12T09:12:56;21.50;99.90
25512;DHT22;13414;44.534;18.700;2022-09-12T09:15:36;22.00;1.00
25512;DHT22;13414;44.534;18.700;2022-09-12T09:18:11;22.60;1.00
25512;DHT22;13414;44.534;18.700;2022-09-12T09:20:45;22.90;99.90
25512;DHT22;13414;44.534;18.700;2022-09-12T09:23:18;22.90;99.90
25512;DHT22;13414;44.534;18.700;2022-09-12T09:25:51;22.60;99.90
25512;DHT22;13414;44.534;18.700;2022-09-12T09:28:25;22.40;99.90
25512;DHT22;13414;44.534;18.700;2022-09-12T09:30:55;22.30;99.90
25512;DHT22;13414;44.534;18.700;2022-09-12T09:33:25;22.40;99.90
25512;DHT22;13414;44.534;18.700;2022-09-12T09:36:01;22.80;99.90
25512;DHT22;13414;44.534;18.700;2022-09-12T09:38:40;22.80;99.90
25512;DHT22;13414;44.534;18.700;2022-09-12T09:41:22;22.70;99.90
25512;DHT22;13414;44.534;18.700;2022-09-12T09:43:57;22.60;99.90
25512;DHT22;13414;44.534;18.700;2022-09-12T09:46:25;22.60;99.90
25512;DHT22;13414;44.534;18.700;2022-09-12T09:48:54;22.90;99.90
25512;DHT22;13414;44.534;18.700;2022-09-12T09:51:24;23.00;99.90
25512;DHT22;13414;44.534;18.700;2022-09-12T09:53:54;23.00;99.90
25512;DHT22;13414;44.534;18.700;2022-09-12T09:56:27;22.90;99.90
25512;DHT22;13414;44.534;18.700;2022-09-12T09:59:06;22.80;99.90
25512;DHT22;13414;44.534;18.700;2022-09-12T10:01:34;22.60;99.90
25512;DHT22;13414;44.534;18.700;2022-09-12T10:04:02;22.30;99.90
25512;DHT22;13414;44.534;18.700;2022-09-12T10:06:32;22.20;99.90
25512;DHT22;13414;44.534;18.700;2022-09-12T10:09:16;22.20;99.90
25512;DHT22;13414;44.534;18.700;2022-09-12T10:11:44;22.30;99.90
25512;DHT22;13414;44.534;18.700;2022-09-12T10:14:33;22.60;99.90
25512;DHT22;13414;44.534;18.700;2022-09-12T10:17:04;22.70;99.90
25512;DHT22;13414;44.534;18.700;2022-09-12T10:19:48;22.90;99.90
25512;DHT22;13414;44.534;18.700;2022-09-12T10:22:17;23.00;99.90
25512;DHT22;13414;44.534;18.700;2022-09-12T10:24:47;23.20;99.90
25512;DHT22;13414;44.534;18.700;2022-09-12T10:27:19;23.60;99.90
25512;DHT22;13414;44.534;18.700;2022-09-12T10:29:51;23.70;99.90
25512;DHT22;13414;44.534;18.700;2022-09-12T10:32:26;23.60;99.90
25512;DHT22;13414;44.534;18.700;2022-09-12T10:34:58;23.40;99.90
25512;DHT22;13414;44.534;18.700;2022-09-12T10:37:30;23.20;99.90
25512;DHT22;13414;44.534;18.700;2022-09-12T10:39:59;23.10;99.70
25512;DHT22;13414;44.534;18.700;2022-09-12T10:42:43;23.00;98.90
25512;DHT22;13414;44.534;18.700;2022-09-12T10:45:24;23.30;98.50
25512;DHT22;13414;44.534;18.700;2022-09-12T10:47:52;23.50;97.20
25512;DHT22;13414;44.534;18.700;2022-09-12T10:50:28;23.50;95.90
25512;DHT22;13414;44.534;18.700;2022-09-12T10:53:12;23.60;96.40
25512;DHT22;13414;44.534;18.700;2022-09-12T10:55:44;23.80;97.40
25512;DHT22;13414;44.534;18.700;2022-09-12T10:58:38;24.00;97.40
25512;DHT22;13414;44.534;18.700;2022-09-12T11:01:18;24.00;97.10
25512;DHT22;13414;44.534;18.700;2022-09-12T11:04:08;23.80;95.80
25512;DHT22;13414;44.534;18.700;2022-09-12T11:06:48;23.90;94.90
25512;DHT22;13414;44.534;18.700;2022-09-12T11:09:24;23.80;94.70
25512;DHT22;13414;44.534;18.700;2022-09-12T11:12:03;23.90;94.50
25512;DHT22;13414;44.534;18.700;2022-09-12T11:14:42;23.60;94.60
25512;DHT22;13414;44.534;18.700;2022-09-12T11:17:22;23.60;95.00
25512;DHT22;13414;44.534;18.700;2022-09-12T11:20:09;23.20;95.80
25512;DHT22;13414;44.534;18.700;2022-09-12T11:23:11;22.90;96.40
25512;DHT22;13414;44.534;18.700;2022-09-12T11:25:50;23.00;96.40
25512;DHT22;13414;44.534;18.700;2022-09-12T11:28:33;23.20;95.60
25512;DHT22;13414;44.534;18.700;2022-09-12T11:31:17;23.60;94.80
25512;DHT22;13414;44.534;18.700;2022-09-12T11:33:50;23.80;94.40
25512;DHT22;13414;44.534;18.700;2022-09-12T11:36:28;24.10;92.70
25512;DHT22;13414;44.534;18.700;2022-09-12T11:39:02;24.50;92.50
25512;DHT22;13414;44.534;18.700;2022-09-12T11:41:35;24.50;90.80
25512;DHT22;13414;44.534;18.700;2022-09-12T11:44:11;24.60;90.20
25512;DHT22;13414;44.534;18.700;2022-09-12T11:46:42;24.70;91.00
25512;DHT22;13414;44.534;18.700;2022-09-12T11:49:21;24.90;91.60
25512;DHT22;13414;44.534;18.700;2022-09-12T11:51:53;24.60;91.30
25512;DHT22;13414;44.534;18.700;2022-09-12T11:54:25;24.10;91.80
25512;DHT22;13414;44.534;18.700;2022-09-12T11:57:01;23.80;93.00
25512;DHT22;13414;44.534;18.700;2022-09-12T11:59:37;23.60;93.50
25512;DHT22;13414;44.534;18.700;2022-09-12T12:02:10;23.50;93.90
25512;DHT22;13414;44.534;18.700;2022-09-12T12:04:57;23.40;93.10
25512;DHT22;13414;44.534;18.700;2022-09-12T12:07:25;23.30;93.60
25512;DHT22;13414;44.534;18.700;2022-09-12T12:09:55;23.40;93.40
25512;DHT22;13414;44.534;18.700;2022-09-12T12:12:24;23.30;92.20
25512;DHT22;13414;44.534;18.700;2022-09-12T12:14:55;23.40;92.20
25512;DHT22;13414;44.534;18.700;2022-09-12T12:17:24;23.50;92.00
25512;DHT22;13414;44.534;18.700;2022-09-12T12:20:01;23.50;92.00
25512;DHT22;13414;44.534;18.700;2022-09-12T12:22:29;23.40;90.70
25512;DHT22;13414;44.534;18.700;2022-09-12T12:25:22;23.50;91.30
25512;DHT22;13414;44.534;18.700;2022-09-12T12:27:55;23.80;90.90
25512;DHT22;13414;44.534;18.700;2022-09-12T12:33:53;23.90;90.00
25512;DHT22;13414;44.534;18.700;2022-09-12T12:36:46;24.30;88.90
25512;DHT22;13414;44.534;18.700;2022-09-12T12:45:48;24.30;87.70
25512;DHT22;13414;44.534;18.700;2022-09-12T12:48:17;24.50;88.70
25512;DHT22;13414;44.534;18.700;2022-09-12T12:50:45;24.60;86.90
25512;DHT22;13414;44.534;18.700;2022-09-12T12:53:21;24.60;87.60
25512;DHT22;13414;44.534;18.700;2022-09-12T12:55:50;24.60;85.00
25512;DHT22;13414;44.534;18.700;2022-09-12T12:58:28;24.60;85.20
25512;DHT22;13414;44.534;18.700;2022-09-12T13:01:09;24.70;85.60
25512;DHT22;13414;44.534;18.700;2022-09-12T13:03:40;24.70;86.10
25512;DHT22;13414;44.534;18.700;2022-09-12T13:06:30;24.60;88.90
25512;DHT22;13414;44.534;18.700;2022-09-12T13:09:02;24.60;89.70
25512;DHT22;13414;44.534;18.700;2022-09-12T13:11:32;24.50;89.70
25512;DHT22;13414;44.534;18.700;2022-09-12T13:14:02;24.40;89.80
25512;DHT22;13414;44.534;18.700;2022-09-12T13:16:33;24.50;89.10
25512;DHT22;13414;44.534;18.700;2022-09-12T13:19:04;24.40;86.10
25512;DHT22;13414;44.534;18.700;2022-09-12T13:21:32;24.40;85.40
25512;DHT22;13414;44.534;18.700;2022-09-12T13:24:03;24.30;83.80
25512;DHT22;13414;44.534;18.700;2022-09-12T13:26:40;24.20;83.90
25512;DHT22;13414;44.534;18.700;2022-09-12T13:29:13;24.20;85.10
25512;DHT22;13414;44.534;18.700;2022-09-12T13:31:43;24.10;84.80
25512;DHT22;13414;44.534;18.700;2022-09-12T13:34:16;24.10;85.20
25512;DHT22;13414;44.534;18.700;2022-09-12T13:36:53;23.90;84.70
25512;DHT22;13414;44.534;18.700;2022-09-12T13:39:26;23.90;86.30
25512;DHT22;13414;44.534;18.700;2022-09-12T13:45:04;23.60;86.70
25512;DHT22;13414;44.534;18.700;2022-09-12T13:47:36;23.60;87.40
25512;DHT22;13414;44.534;18.700;2022-09-12T13:50:06;23.50;85.70
25512;DHT22;13414;44.534;18.700;2022-09-12T13:52:36;23.40;86.30
25512;DHT22;13414;44.534;18.700;2022-09-12T13:55:10;23.50;86.00
25512;DHT22;13414;44.534;18.700;2022-09-12T13:57:44;23.50;84.90
25512;DHT22;13414;44.534;18.700;2022-09-12T14:00:15;23.60;84.50
25512;DHT22;13414;44.534;18.700;2022-09-12T14:02:45;23.80;84.10
25512;DHT22;13414;44.534;18.700;2022-09-12T14:05:18;24.00;84.50
25512;DHT22;13414;44.534;18.700;2022-09-12T14:07:52;24.20;85.20
25512;DHT22;13414;44.534;18.700;2022-09-12T14:10:29;24.50;83.80
25512;DHT22;13414;44.534;18.700;2022-09-12T14:12:59;24.40;84.40
25512;DHT22;13414;44.534;18.700;2022-09-12T14:15:30;24.50;84.00
25512;DHT22;13414;44.534;18.700;2022-09-12T14:18:00;24.60;83.70
25512;DHT22;13414;44.534;18.700;2022-09-12T14:20:29;24.40;82.70
25512;DHT22;13414;44.534;18.700;2022-09-12T14:23:00;24.00;83.90
25512;DHT22;13414;44.534;18.700;2022-09-12T14:25:34;23.80;83.80
25512;DHT22;13414;44.534;18.700;2022-09-12T14:28:04;23.60;85.20
25512;DHT22;13414;44.534;18.700;2022-09-12T14:30:34;23.50;85.20
25512;DHT22;13414;44.534;18.700;2022-09-12T14:33:15;23.20;86.70
25512;DHT22;13414;44.534;18.700;2022-09-12T14:35:48;23.00;87.70
25512;DHT22;13414;44.534;18.700;2022-09-12T14:38:22;22.90;88.30
25512;DHT22;13414;44.534;18.700;2022-09-12T14:40:58;23.00;89.50
25512;DHT22;13414;44.534;18.700;2022-09-12T14:43:29;23.00;90.10
25512;DHT22;13414;44.534;18.700;2022-09-12T14:45:58;22.90;90.50
25512;DHT22;13414;44.534;18.700;2022-09-12T14:48:28;22.90;90.80
25512;DHT22;13414;44.534;18.700;2022-09-12T14:50:57;23.00;91.00
25512;DHT22;13414;44.534;18.700;2022-09-12T14:53:30;23.00;91.10
25512;DHT22;13414;44.534;18.700;2022-09-12T14:56:06;23.00;91.10
25512;DHT22;13414;44.534;18.700;2022-09-12T14:58:34;23.00;91.10
25512;DHT22;13414;44.534;18.700;2022-09-12T15:01:19;23.20;90.90
25512;DHT22;13414;44.534;18.700;2022-09-12T15:03:51;23.30;90.00
25512;DHT22;13414;44.534;18.700;2022-09-12T15:06:23;23.30;89.80
25512;DHT22;13414;44.534;18.700;2022-09-12T15:08:52;23.40;89.40
25512;DHT22;13414;44.534;18.700;2022-09-12T15:11:21;23.30;88.90
25512;DHT22;13414;44.534;18.700;2022-09-12T15:13:48;23.20;87.80
25512;DHT22;13414;44.534;18.700;2022-09-12T15:16:16;23.10;87.60
25512;DHT22;13414;44.534;18.700;2022-09-12T15:18:43;23.10;88.20
25512;DHT22;13414;44.534;18.700;2022-09-12T15:21:12;23.10;88.20
25512;DHT22;13414;44.534;18.700;2022-09-12T15:23:44;23.10;87.40
25512;DHT22;13414;44.534;18.700;2022-09-12T15:26:13;23.00;87.90
25512;DHT22;13414;44.534;18.700;2022-09-12T15:28:42;22.90;88.10
25512;DHT22;13414;44.534;18.700;2022-09-12T15:31:14;22.90;88.90
25512;DHT22;13414;44.534;18.700;2022-09-12T15:33:45;23.00;89.00
25512;DHT22;13414;44.534;18.700;2022-09-12T15:36:16;23.00;89.40
25512;DHT22;13414;44.534;18.700;2022-09-12T15:38:44;23.00;89.90
25512;DHT22;13414;44.534;18.700;2022-09-12T15:41:14;23.00;89.80
25512;DHT22;13414;44.534;18.700;2022-09-12T15:43:44;23.00;90.00
25512;DHT22;13414;44.534;18.700;2022-09-12T15:46:13;22.90;90.00
25512;DHT22;13414;44.534;18.700;2022-09-12T15:48:40;22.90;90.10
25512;DHT22;13414;44.534;18.700;2022-09-12T15:51:10;22.80;90.10
25512;DHT22;13414;44.534;18.700;2022-09-12T15:53:38;22.80;90.10
25512;DHT22;13414;44.534;18.700;2022-09-12T15:56:06;22.70;90.70
25512;DHT22;13414;44.534;18.700;2022-09-12T15:58:45;22.80;90.50
25512;DHT22;13414;44.534;18.700;2022-09-12T16:01:13;22.80;90.70
25512;DHT22;13414;44.534;18.700;2022-09-12T16:03:41;22.80;90.90